createdAt,value
2022-12-25T00:02:03.590Z,26.00
2022-12-25T00:07:05.987Z,20.88
2022-12-25T00:12:08.561Z,19.60
2022-12-25T00:17:10.999Z,23.90
2022-12-25T00:22:15.480Z,18.65
2022-12-25T00:27:18.872Z,24.45
2022-12-25T00:32:21.440Z,17.40
2022-12-25T00:37:23.828Z,17.98
2022-12-25T00:42:27.143Z,14.43
2022-12-25T00:47:29.742Z,14.57
2022-12-25T00:52:32.500Z,15.60
2022-12-25T00:57:34.911Z,19.73
2022-12-25T01:02:37.366Z,27.17
2022-12-25T01:07:40.332Z,19.93
2022-12-25T01:12:43.716Z,18.77
2022-12-25T01:17:46.316Z,14.82
2022-12-25T01:22:48.731Z,12.75
2022-12-25T01:27:51.322Z,12.73
2022-12-25T01:32:53.797Z,11.63
2022-12-25T01:37:56.259Z,11.48
2022-12-25T01:42:58.674Z,11.80
2022-12-25T01:48:05.161Z,11.88
2022-12-25T01:53:08.025Z,10.65
2022-12-25T01:58:10.404Z,10.80
2022-12-25T02:03:13.019Z,10.23
2022-12-25T02:08:17.457Z,12.68
2022-12-25T02:13:20.236Z,12.98
2022-12-25T02:18:28.737Z,22.10
2022-12-25T02:23:45.935Z,27.33
2022-12-25T02:29:02.124Z,20.65
2022-12-25T02:34:14.968Z,12.23
2022-12-25T02:39:42.692Z,10.82
2022-12-25T02:45:05.113Z,11.70
2022-12-25T02:50:29.938Z,11.38
2022-12-25T02:55:53.938Z,9.90
2022-12-25T03:06:38.981Z,11.83
2022-12-25T03:11:41.813Z,12.50
2022-12-25T03:16:53.824Z,12.48
2022-12-25T03:22:15.556Z,11.77
2022-12-25T03:27:18.238Z,11.65
2022-12-25T03:32:29.402Z,14.17
2022-12-25T03:37:42.736Z,16.88
2022-12-25T03:43:11.319Z,13.13
2022-12-25T03:48:33.711Z,12.30
2022-12-25T03:54:07.619Z,13.20
2022-12-25T03:59:28.867Z,12.80
2022-12-25T04:04:49.833Z,12.05
2022-12-25T04:10:13.284Z,12.00
2022-12-25T04:15:35.289Z,12.73
2022-12-25T04:20:56.670Z,12.30
2022-12-25T04:26:18.147Z,15.30
2022-12-25T04:31:39.204Z,15.07
2022-12-25T04:36:41.839Z,13.40
2022-12-25T04:41:44.375Z,13.80
2022-12-25T04:46:46.811Z,14.85
2022-12-25T04:51:49.276Z,14.10
2022-12-25T04:56:51.825Z,14.95
2022-12-25T05:01:54.522Z,14.52
2022-12-25T05:06:56.955Z,15.70
2022-12-25T05:11:59.395Z,16.98
2022-12-25T05:17:01.816Z,18.05
2022-12-25T05:22:04.475Z,15.30
2022-12-25T05:27:06.925Z,15.48
2022-12-25T05:32:09.366Z,15.63
2022-12-25T05:37:11.766Z,16.15
2022-12-25T05:42:14.348Z,15.82
2022-12-25T05:47:16.649Z,14.63
2022-12-25T05:52:18.981Z,14.32
2022-12-25T05:57:21.428Z,12.70
2022-12-25T06:02:24.714Z,13.77
2022-12-25T06:07:27.363Z,14.27
2022-12-25T06:12:29.918Z,14.57
2022-12-25T06:17:32.451Z,15.05
2022-12-25T06:22:36.463Z,16.52
2022-12-25T06:27:39.020Z,19.25
2022-12-25T06:32:41.567Z,17.13
2022-12-25T06:37:43.941Z,17.33
2022-12-25T06:42:47.112Z,17.10
2022-12-25T06:47:49.884Z,14.30
2022-12-25T06:52:52.279Z,22.73
2022-12-25T06:57:54.708Z,18.88
2022-12-25T07:02:57.178Z,19.17
2022-12-25T07:07:59.962Z,17.77
2022-12-25T07:13:02.484Z,23.42
2022-12-25T07:18:04.933Z,16.90
2022-12-25T07:23:07.315Z,27.83
2022-12-25T07:28:09.712Z,31.13
2022-12-25T07:33:12.308Z,34.80
2022-12-25T07:38:14.821Z,28.35
2022-12-25T07:43:17.950Z,31.17
2022-12-25T07:48:20.791Z,51.65
2022-12-25T07:53:23.181Z,39.65
2022-12-25T07:58:26.153Z,25.85
2022-12-25T08:03:28.826Z,29.85
2022-12-25T08:08:31.972Z,36.47
2022-12-25T08:13:34.553Z,18.27
2022-12-25T08:18:38.369Z,18.27
2022-12-25T08:23:46.334Z,15.77
2022-12-25T08:28:49.390Z,16.60
2022-12-25T08:33:54.692Z,14.45
2022-12-25T08:39:02.556Z,15.98
2022-12-25T08:44:06.531Z,12.52
2022-12-25T08:49:09.084Z,15.52
2022-12-25T08:54:11.757Z,19.83
2022-12-25T08:59:14.389Z,12.57
2022-12-25T09:04:16.939Z,22.02
2022-12-25T09:09:19.344Z,29.00
2022-12-25T09:14:22.257Z,32.05
2022-12-25T09:19:25.013Z,43.33
2022-12-25T09:24:27.508Z,24.00
2022-12-25T09:29:29.879Z,20.40
2022-12-25T09:34:33.808Z,33.40
2022-12-25T09:39:39.477Z,27.52
2022-12-25T09:44:51.575Z,13.02
2022-12-25T09:50:10.328Z,11.55
2022-12-25T09:55:20.485Z,19.90
2022-12-25T10:00:30.450Z,16.38
2022-12-25T10:05:44.496Z,21.52
2022-12-25T10:10:52.299Z,17.67
2022-12-25T10:16:14.734Z,12.43
2022-12-25T10:21:18.524Z,13.00
2022-12-25T10:31:27.212Z,13.50
2022-12-25T10:36:32.335Z,12.15
2022-12-25T10:42:08.684Z,12.30
2022-12-25T10:47:11.108Z,14.52
2022-12-25T10:52:22.041Z,16.42
2022-12-25T10:57:27.463Z,18.27
2022-12-25T11:02:35.385Z,12.93
2022-12-25T11:07:51.195Z,15.07
2022-12-25T11:12:55.179Z,12.23
2022-12-25T11:17:58.324Z,9.95
2022-12-25T11:23:02.283Z,10.55
2022-12-25T11:28:06.077Z,17.83
2022-12-25T11:33:12.457Z,15.13
2022-12-25T11:38:15.259Z,11.43
2022-12-25T11:43:23.188Z,10.57
2022-12-25T11:48:29.919Z,11.68
2022-12-25T11:53:52.006Z,12.40
2022-12-25T11:58:58.542Z,15.25
2022-12-25T12:04:02.209Z,14.65
2022-12-25T12:09:39.004Z,13.75
2022-12-25T12:15:03.367Z,21.05
2022-12-25T12:20:28.572Z,19.55
2022-12-25T12:25:41.501Z,27.45
2022-12-25T12:31:14.342Z,30.20
2022-12-25T12:36:40.093Z,21.38
2022-12-25T12:41:46.717Z,23.98
2022-12-25T12:46:56.518Z,24.98
2022-12-25T12:52:06.284Z,28.60
2022-12-25T12:57:27.118Z,22.45
2022-12-25T13:02:36.535Z,19.45
2022-12-25T13:07:57.086Z,18.55
2022-12-25T13:13:07.213Z,24.88
2022-12-25T13:18:11.131Z,20.08
2022-12-25T13:23:27.969Z,19.83
2022-12-25T13:28:35.477Z,29.00
2022-12-25T13:33:38.269Z,19.60
2022-12-25T13:38:52.007Z,19.40
2022-12-25T13:43:57.931Z,23.52
2022-12-25T13:49:01.637Z,24.95
2022-12-25T13:59:15.307Z,28.83
2022-12-25T14:04:21.369Z,30.67
2022-12-25T14:09:23.964Z,27.33
2022-12-25T14:14:27.440Z,33.72
2022-12-25T14:19:31.372Z,32.50
2022-12-25T14:24:34.317Z,28.20
2022-12-25T14:29:41.280Z,27.07
2022-12-25T14:34:46.626Z,27.15
2022-12-25T14:39:55.766Z,30.35
2022-12-25T14:45:04.462Z,29.77
2022-12-25T14:50:15.871Z,26.77
2022-12-25T15:00:31.815Z,30.10
2022-12-25T15:05:34.444Z,26.73
2022-12-25T15:16:11.244Z,30.95
2022-12-25T15:21:31.754Z,31.73
2022-12-25T15:26:34.286Z,33.88
2022-12-25T15:31:38.789Z,28.33
2022-12-25T15:36:41.267Z,31.63
2022-12-25T15:42:02.290Z,28.92
2022-12-25T15:47:05.107Z,31.55
2022-12-25T15:52:10.947Z,31.58
2022-12-25T15:57:18.931Z,31.35
2022-12-25T16:02:21.701Z,35.72
2022-12-25T16:07:25.320Z,27.43
2022-12-25T16:12:27.772Z,36.40
2022-12-25T16:17:31.654Z,38.78
2022-12-25T16:22:39.884Z,37.40
2022-12-25T16:27:42.595Z,41.35
2022-12-25T16:32:49.139Z,40.70
2022-12-25T16:37:51.773Z,34.30
2022-12-25T16:42:58.179Z,36.72
2022-12-25T16:48:00.516Z,34.08
2022-12-25T16:53:03.729Z,35.05
2022-12-25T16:58:10.631Z,39.50
2022-12-25T17:03:36.018Z,48.97
2022-12-25T17:08:38.651Z,49.30
2022-12-25T17:13:41.128Z,41.95
2022-12-25T17:18:43.659Z,46.15
2022-12-25T17:23:46.172Z,51.65
2022-12-25T17:28:49.269Z,45.90
2022-12-25T17:33:51.710Z,40.55
2022-12-25T17:38:54.204Z,40.63
2022-12-25T17:43:56.660Z,40.13
2022-12-25T17:49:01.335Z,40.38
2022-12-25T17:54:05.584Z,36.03
2022-12-25T17:59:10.663Z,36.20
2022-12-25T18:04:13.256Z,35.10
2022-12-25T18:09:15.921Z,36.07
2022-12-25T18:14:18.502Z,36.17
2022-12-25T18:19:21.016Z,35.33
2022-12-25T18:24:23.366Z,33.38
2022-12-25T18:29:26.074Z,32.57
2022-12-25T18:34:28.611Z,33.17
2022-12-25T18:44:35.332Z,32.10
2022-12-25T18:49:37.681Z,33.13
2022-12-25T18:54:42.847Z,31.98
2022-12-25T18:59:47.052Z,34.25
2022-12-25T19:04:49.721Z,33.47
2022-12-25T19:09:52.225Z,34.00
2022-12-25T19:14:55.155Z,35.97
2022-12-25T19:19:57.787Z,34.40
2022-12-25T19:25:00.371Z,34.58
2022-12-25T19:30:03.125Z,34.60
2022-12-25T19:35:07.240Z,42.57
2022-12-25T19:40:12.321Z,33.35
2022-12-25T19:45:14.958Z,31.30
2022-12-25T19:50:19.808Z,32.22
2022-12-25T19:55:22.774Z,30.53
2022-12-25T20:00:28.076Z,31.65
2022-12-25T20:05:30.842Z,22.48
2022-12-25T20:10:33.252Z,31.30
2022-12-25T20:15:36.015Z,28.77
2022-12-25T20:20:38.561Z,30.70
2022-12-25T20:25:41.932Z,30.30
2022-12-25T20:30:45.685Z,27.30
2022-12-25T20:41:25.865Z,29.42
2022-12-25T20:46:25.354Z,32.05
2022-12-25T20:51:28.689Z,30.63
2022-12-25T20:56:31.404Z,29.88
2022-12-25T21:01:47.678Z,28.27
2022-12-25T21:06:51.212Z,29.15
2022-12-25T21:11:53.836Z,29.50
2022-12-25T21:16:56.780Z,28.67
2022-12-25T21:21:59.357Z,28.00
2022-12-25T21:27:02.736Z,29.10
2022-12-25T21:32:24.022Z,28.83
2022-12-25T21:37:26.558Z,28.88
2022-12-25T21:42:29.148Z,27.53
2022-12-25T21:48:02.655Z,26.77
2022-12-25T21:52:53.825Z,27.38
2022-12-25T21:57:56.310Z,25.88
2022-12-25T22:03:07.786Z,25.63
2022-12-25T22:08:10.412Z,25.70
2022-12-25T22:13:33.850Z,26.60
2022-12-25T22:18:54.554Z,24.05
2022-12-25T22:23:56.947Z,22.17
2022-12-25T22:29:00.158Z,21.17
2022-12-25T22:34:03.433Z,19.13
2022-12-25T22:39:05.992Z,21.17
2022-12-25T22:44:17.391Z,20.85
2022-12-25T22:54:42.229Z,19.67
2022-12-25T22:59:44.599Z,21.38
2022-12-25T23:04:46.976Z,19.75
2022-12-25T23:09:49.492Z,19.27
2022-12-25T23:14:51.860Z,19.38
2022-12-25T23:20:12.901Z,17.65
2022-12-25T23:25:33.889Z,18.58
2022-12-25T23:30:36.306Z,19.60
2022-12-25T23:35:38.662Z,18.38
2022-12-25T23:40:41.675Z,18.60
2022-12-25T23:45:44.100Z,20.67
2022-12-25T23:50:47.891Z,20.67
2022-12-25T23:55:55.540Z,20.13
